createdAt,value
2024-04-04T00:01:49.466Z,9.00
2024-04-04T00:04:26.168Z,9.80
2024-04-04T00:06:57.131Z,9.80
2024-04-04T00:11:56.510Z,10.60
2024-04-04T00:14:27.229Z,10.00
2024-04-04T00:16:57.839Z,9.20
2024-04-04T00:19:28.766Z,10.70
2024-04-04T00:24:28.215Z,11.10
2024-04-04T00:27:05.176Z,12.00
2024-04-04T00:29:39.544Z,12.70
2024-04-04T00:32:10.088Z,14.00
2024-04-04T00:34:40.531Z,13.40
2024-04-04T00:37:11.061Z,12.20
2024-04-04T00:39:41.411Z,12.60
2024-04-04T00:42:11.972Z,13.10
2024-04-04T00:44:42.200Z,13.00
2024-04-04T00:47:12.941Z,14.10
2024-04-04T00:49:43.994Z,13.20
2024-04-04T00:52:14.499Z,14.30
2024-04-04T00:54:46.617Z,14.80
2024-04-04T00:57:17.439Z,14.20
2024-04-04T00:59:48.067Z,14.00
2024-04-04T01:02:18.897Z,13.90
2024-04-04T01:04:49.371Z,14.70
2024-04-04T01:07:20.388Z,14.40
2024-04-04T01:12:20.722Z,14.80
2024-04-04T01:14:51.764Z,14.50
2024-04-04T01:17:22.448Z,14.10
2024-04-04T01:19:53.218Z,14.10
2024-04-04T01:22:23.731Z,14.50
2024-04-04T01:24:54.179Z,14.10
2024-04-04T01:27:24.777Z,13.90
2024-04-04T01:29:55.119Z,13.90
2024-04-04T01:32:26.096Z,14.10
2024-04-04T01:37:25.432Z,13.40
2024-04-04T01:39:55.891Z,13.70
2024-04-04T01:42:26.307Z,13.20
2024-04-04T01:44:56.625Z,13.90
2024-04-04T01:47:26.910Z,13.70
2024-04-04T01:49:57.515Z,13.40
2024-04-04T01:52:27.928Z,13.80
2024-04-04T01:54:58.258Z,14.60
2024-04-04T01:57:28.902Z,14.10
2024-04-04T02:00:00.116Z,14.70
2024-04-04T02:02:30.686Z,14.80
2024-04-04T02:05:01.034Z,15.00
2024-04-04T02:07:31.495Z,14.10
2024-04-04T02:10:02.245Z,14.40
2024-04-04T02:12:32.787Z,15.30
2024-04-04T02:15:03.423Z,15.60
2024-04-04T02:17:33.685Z,15.40
2024-04-04T02:20:04.686Z,17.00
2024-04-04T02:25:04.400Z,15.70
2024-04-04T02:27:34.797Z,16.60
2024-04-04T02:30:06.327Z,15.40
2024-04-04T02:32:36.951Z,15.80
2024-04-04T02:35:09.147Z,16.30
2024-04-04T02:37:40.034Z,17.50
2024-04-04T02:40:12.935Z,16.50
2024-04-04T02:42:43.244Z,16.50
2024-04-04T02:45:13.707Z,16.80
2024-04-04T02:47:44.174Z,15.70
2024-04-04T02:50:14.589Z,16.60
2024-04-04T02:52:45.455Z,17.30
2024-04-04T02:55:16.037Z,17.50
2024-04-04T02:57:46.899Z,18.00
2024-04-04T03:00:18.142Z,18.20
2024-04-04T03:02:48.619Z,19.10
2024-04-04T03:05:18.997Z,18.20
2024-04-04T03:07:50.853Z,18.10
2024-04-04T03:10:21.433Z,18.50
2024-04-04T03:12:51.807Z,18.40
2024-04-04T03:15:22.211Z,18.70
2024-04-04T03:17:52.626Z,18.10
2024-04-04T03:20:23.186Z,18.40
2024-04-04T03:23:02.125Z,17.80
2024-04-04T03:25:32.567Z,20.20
2024-04-04T03:28:03.283Z,20.20
2024-04-04T03:30:33.717Z,19.10
2024-04-04T03:33:04.535Z,18.90
2024-04-04T03:35:37.336Z,18.30
2024-04-04T03:38:07.946Z,18.60
2024-04-04T03:40:38.434Z,18.80
2024-04-04T03:43:08.904Z,18.90
2024-04-04T03:45:41.928Z,18.60
2024-04-04T03:48:12.322Z,19.20
2024-04-04T03:50:42.790Z,18.60
2024-04-04T03:53:14.137Z,19.70
2024-04-04T03:55:44.692Z,18.50
2024-04-04T03:58:17.194Z,17.70
2024-04-04T04:00:47.683Z,17.10
2024-04-04T04:03:18.171Z,19.20
2024-04-04T04:05:48.962Z,17.70
2024-04-04T04:08:19.360Z,18.40
2024-04-04T04:10:49.847Z,19.80
2024-04-04T04:13:20.513Z,18.80
2024-04-04T04:15:58.021Z,17.90
2024-04-04T04:18:28.426Z,17.50
2024-04-04T04:21:01.849Z,17.50
2024-04-04T04:23:32.230Z,17.00
2024-04-04T04:26:02.730Z,17.60
2024-04-04T04:28:33.238Z,16.90
2024-04-04T04:31:03.910Z,17.40
2024-04-04T04:33:34.324Z,17.70
2024-04-04T04:36:06.899Z,18.90
2024-04-04T04:38:37.263Z,18.70
2024-04-04T04:41:09.215Z,20.00
2024-04-04T04:43:39.663Z,18.30
2024-04-04T04:46:10.191Z,17.80
2024-04-04T04:48:40.551Z,16.90
2024-04-04T04:51:11.643Z,19.10
2024-04-04T04:53:42.590Z,15.90
2024-04-04T04:58:42.741Z,15.00
2024-04-04T05:01:13.836Z,16.80
2024-04-04T05:03:46.286Z,17.90
2024-04-04T05:06:17.304Z,18.30
2024-04-04T05:08:47.990Z,19.60
2024-04-04T05:11:18.781Z,18.90
2024-04-04T05:13:49.161Z,17.90
2024-04-04T05:16:19.700Z,16.80
2024-04-04T05:18:50.125Z,15.30
2024-04-04T05:21:20.588Z,12.70
2024-04-04T05:23:51.518Z,12.90
2024-04-04T05:26:22.558Z,11.80
2024-04-04T05:28:56.060Z,11.00
2024-04-04T05:31:26.438Z,10.90
2024-04-04T05:33:56.767Z,10.50
2024-04-04T05:36:27.271Z,10.40
2024-04-04T05:38:57.644Z,8.80
2024-04-04T05:41:28.050Z,9.20
2024-04-04T05:43:58.795Z,8.70
2024-04-04T05:46:29.819Z,8.00
2024-04-04T05:51:29.961Z,7.60
2024-04-04T05:54:00.313Z,7.40
2024-04-04T05:56:31.087Z,6.80
2024-04-04T05:59:02.203Z,7.00
2024-04-04T06:01:33.505Z,7.20
2024-04-04T06:04:04.731Z,6.70
2024-04-04T06:06:35.064Z,6.20
2024-04-04T06:09:05.744Z,6.50
2024-04-04T06:11:36.257Z,6.40
2024-04-04T06:14:07.118Z,6.00
2024-04-04T06:19:08.382Z,6.20
2024-04-04T06:21:38.920Z,5.70
2024-04-04T06:24:09.542Z,5.70
2024-04-04T06:26:39.935Z,5.20
2024-04-04T06:29:10.647Z,5.40
2024-04-04T06:31:41.145Z,5.60
2024-04-04T06:34:12.168Z,5.20
2024-04-04T06:36:42.424Z,5.20
2024-04-04T06:39:13.390Z,5.10
2024-04-04T06:44:13.440Z,4.60
2024-04-04T06:46:43.885Z,5.00
2024-04-04T06:49:14.358Z,4.60
2024-04-04T06:51:45.456Z,4.50
2024-04-04T06:54:15.993Z,4.60
2024-04-04T06:56:47.078Z,4.10
2024-04-04T06:59:27.920Z,4.50
2024-04-04T07:01:58.491Z,4.20
2024-04-04T07:04:28.854Z,4.20
2024-04-04T07:06:59.530Z,4.00
2024-04-04T07:09:30.090Z,3.70
2024-04-04T07:12:00.552Z,4.00
2024-04-04T07:14:31.123Z,3.90
2024-04-04T07:17:02.314Z,3.50
2024-04-04T07:19:32.735Z,3.40
2024-04-04T07:22:03.372Z,5.40
2024-04-04T07:27:02.851Z,5.10
2024-04-04T07:29:33.254Z,6.90
2024-04-04T07:32:03.797Z,7.50
2024-04-04T07:34:34.284Z,6.40
2024-04-04T07:37:05.120Z,6.50
2024-04-04T07:39:35.484Z,4.10
2024-04-04T07:42:07.486Z,4.50
2024-04-04T07:44:37.778Z,4.00
2024-04-04T07:47:10.002Z,3.90
2024-04-04T07:49:40.478Z,3.70
2024-04-04T07:52:11.014Z,7.00
2024-04-04T07:54:41.368Z,7.10
2024-04-04T07:57:12.515Z,5.00
2024-04-04T07:59:43.799Z,4.50
2024-04-04T08:02:14.121Z,7.30
2024-04-04T08:04:44.418Z,5.70
2024-04-04T08:07:14.838Z,4.00
2024-04-04T08:09:45.123Z,3.70
2024-04-04T08:12:15.945Z,3.60
2024-04-04T08:17:16.628Z,3.10
2024-04-04T08:19:47.017Z,3.10
2024-04-04T08:22:17.470Z,3.30
2024-04-04T08:24:47.953Z,3.10
2024-04-04T08:27:18.439Z,2.10
2024-04-04T08:32:19.084Z,2.50
2024-04-04T08:34:49.610Z,2.90
2024-04-04T08:37:19.960Z,3.00
2024-04-04T08:39:50.350Z,2.30
2024-04-04T08:42:23.571Z,2.20
2024-04-04T08:44:54.889Z,2.20
2024-04-04T08:47:26.457Z,2.00
2024-04-04T08:49:57.351Z,2.50
2024-04-04T08:52:27.750Z,2.00
2024-04-04T08:54:58.263Z,2.10
2024-04-04T08:57:29.270Z,2.50
2024-04-04T09:00:00.006Z,2.80
2024-04-04T09:02:30.437Z,2.90
2024-04-04T09:05:07.275Z,2.40
2024-04-04T09:07:38.332Z,2.30
2024-04-04T09:10:14.073Z,2.10
2024-04-04T09:12:45.551Z,2.00
2024-04-04T09:15:17.731Z,1.90
2024-04-04T09:17:48.057Z,2.40
2024-04-04T09:20:20.478Z,1.80
2024-04-04T09:22:54.604Z,1.90
2024-04-04T09:25:25.374Z,1.70
2024-04-04T09:27:56.449Z,1.80
2024-04-04T09:30:28.467Z,1.50
2024-04-04T09:32:59.057Z,1.80
2024-04-04T09:35:31.252Z,1.70
2024-04-04T09:38:02.300Z,1.50
2024-04-04T09:40:32.934Z,2.10
2024-04-04T09:45:34.546Z,1.70
2024-04-04T09:48:07.593Z,1.40
2024-04-04T09:50:38.283Z,2.90
2024-04-04T09:55:38.371Z,1.70
2024-04-04T09:58:09.619Z,1.40
2024-04-04T10:00:42.532Z,1.40
2024-04-04T10:03:14.990Z,1.50
2024-04-04T10:05:45.677Z,1.70
2024-04-04T10:08:16.526Z,1.60
2024-04-04T10:10:47.448Z,1.40
2024-04-04T10:13:20.043Z,1.40
2024-04-04T10:15:51.274Z,1.40
2024-04-04T10:18:21.593Z,1.30
2024-04-04T10:20:55.731Z,1.90
2024-04-04T10:23:27.282Z,1.50
2024-04-04T10:26:08.888Z,1.60
2024-04-04T10:28:39.306Z,1.30
2024-04-04T10:33:39.592Z,1.30
2024-04-04T10:36:11.636Z,1.10
2024-04-04T10:38:42.787Z,1.50
2024-04-04T10:41:13.076Z,1.30
2024-04-04T10:43:44.889Z,1.20
2024-04-04T10:46:16.435Z,1.60
2024-04-04T10:48:47.232Z,1.30
2024-04-04T10:51:17.681Z,1.10
2024-04-04T10:53:48.579Z,1.20
2024-04-04T10:58:52.111Z,1.10
2024-04-04T11:01:33.003Z,1.10
2024-04-04T11:04:05.405Z,1.30
2024-04-04T11:06:35.861Z,1.10
2024-04-04T11:09:09.260Z,0.90
2024-04-04T11:11:41.179Z,1.10
2024-04-04T11:14:12.301Z,1.00
2024-04-04T11:16:42.666Z,1.10
2024-04-04T11:19:13.422Z,1.20
2024-04-04T11:21:43.978Z,1.30
2024-04-04T11:24:16.116Z,1.30
2024-04-04T11:26:47.511Z,1.00
2024-04-04T11:31:46.819Z,1.10
2024-04-04T11:34:17.095Z,1.20
2024-04-04T11:36:47.687Z,1.20
2024-04-04T11:39:18.632Z,1.30
2024-04-04T11:41:49.145Z,1.30
2024-04-04T11:44:19.428Z,0.90
2024-04-04T11:46:49.844Z,1.20
2024-04-04T11:49:20.117Z,1.20
2024-04-04T11:51:50.381Z,1.20
2024-04-04T11:54:20.999Z,1.00
2024-04-04T11:56:51.812Z,1.10
2024-04-04T12:02:52.127Z,1.20
2024-04-04T12:05:23.111Z,1.00
2024-04-04T12:07:53.852Z,1.30
2024-04-04T12:12:53.999Z,1.30
2024-04-04T12:15:24.357Z,1.10
2024-04-04T12:17:58.057Z,0.90
2024-04-04T12:20:29.632Z,1.10
2024-04-04T12:23:00.095Z,0.80
2024-04-04T12:25:30.724Z,1.00
2024-04-04T12:30:30.174Z,1.10
2024-04-04T12:33:00.723Z,1.00
2024-04-04T12:35:31.248Z,0.80
2024-04-04T12:38:02.024Z,0.70
2024-04-04T12:40:32.395Z,0.70
2024-04-04T12:43:02.836Z,0.90
2024-04-04T12:45:34.168Z,0.70
2024-04-04T12:48:05.127Z,0.80
2024-04-04T12:50:35.590Z,0.80
2024-04-04T12:53:06.966Z,0.70
2024-04-04T12:55:37.487Z,0.70
2024-04-04T12:58:08.461Z,0.90
2024-04-04T13:00:39.651Z,1.10
2024-04-04T13:03:10.642Z,1.00
2024-04-04T13:08:10.398Z,1.40
2024-04-04T13:10:40.848Z,1.30
2024-04-04T13:13:11.166Z,1.10
2024-04-04T13:15:41.847Z,1.10
2024-04-04T13:20:41.750Z,1.10
2024-04-04T13:23:12.228Z,5.30
2024-04-04T13:25:42.612Z,2.40
2024-04-04T13:28:13.004Z,1.60
2024-04-04T13:30:44.153Z,1.30
2024-04-04T13:33:14.676Z,2.60
2024-04-04T13:35:45.306Z,4.90
2024-04-04T13:38:16.139Z,2.30
2024-04-04T13:40:46.841Z,3.20
2024-04-04T13:43:17.299Z,1.60
2024-04-04T13:45:47.682Z,2.20
2024-04-04T13:48:18.070Z,2.90
2024-04-04T13:50:48.454Z,4.50
2024-04-04T13:53:19.799Z,2.60
2024-04-04T13:55:50.167Z,1.70
2024-04-04T13:58:20.847Z,1.60
2024-04-04T14:03:20.176Z,1.70
2024-04-04T14:05:52.577Z,1.90
2024-04-04T14:08:23.166Z,1.30
2024-04-04T14:10:53.545Z,1.20
2024-04-04T14:13:24.089Z,1.20
2024-04-04T14:15:54.632Z,1.30
2024-04-04T14:18:42.910Z,1.30
2024-04-04T14:21:16.705Z,1.20
2024-04-04T14:23:47.155Z,1.40
2024-04-04T14:28:55.315Z,1.40
2024-04-04T14:31:25.920Z,1.60
2024-04-04T14:33:56.408Z,1.40
2024-04-04T14:36:27.310Z,4.50
2024-04-04T14:38:58.611Z,3.30
2024-04-04T14:41:29.258Z,4.20
2024-04-04T14:43:59.502Z,4.30
2024-04-04T14:46:30.128Z,2.40
2024-04-04T14:49:00.484Z,1.90
2024-04-04T14:51:30.824Z,3.00
2024-04-04T14:54:01.348Z,2.00
2024-04-04T14:56:32.441Z,1.60
2024-04-04T14:59:02.753Z,2.90
2024-04-04T15:01:33.386Z,2.80
2024-04-04T15:06:36.299Z,2.00
2024-04-04T15:09:06.932Z,1.30
2024-04-04T15:11:37.490Z,1.50
2024-04-04T15:14:08.022Z,1.30
2024-04-04T15:16:38.841Z,1.80
2024-04-04T15:21:38.265Z,2.10
2024-04-04T15:24:10.960Z,1.50
2024-04-04T15:26:42.099Z,1.20
2024-04-04T15:29:12.586Z,1.40
2024-04-04T15:31:43.249Z,1.60
2024-04-04T15:34:14.343Z,1.30
2024-04-04T15:36:44.864Z,1.70
2024-04-04T15:39:16.808Z,1.80
2024-04-04T15:41:47.281Z,1.70
2024-04-04T15:44:17.852Z,2.20
2024-04-04T15:46:48.311Z,1.80
2024-04-04T15:49:19.011Z,1.60
2024-04-04T15:51:50.095Z,1.70
2024-04-04T15:54:21.279Z,2.40
2024-04-04T15:56:52.565Z,3.00
2024-04-04T15:59:23.140Z,4.10
2024-04-04T16:01:53.491Z,6.00
2024-04-04T16:04:23.950Z,5.40
2024-04-04T16:06:54.395Z,4.70
2024-04-04T16:09:25.132Z,4.10
2024-04-04T16:12:18.587Z,3.10
2024-04-04T16:14:46.708Z,3.70
2024-04-04T16:17:17.195Z,3.00
2024-04-04T16:19:47.881Z,3.40
2024-04-04T16:22:18.467Z,3.30
2024-04-04T16:24:49.271Z,3.60
2024-04-04T16:27:19.708Z,4.30
2024-04-04T16:29:50.418Z,3.10
2024-04-04T16:34:50.171Z,3.40
2024-04-04T16:37:20.667Z,4.40
2024-04-04T16:39:53.924Z,4.60
2024-04-04T16:42:24.407Z,4.10
2024-04-04T16:44:54.814Z,4.60
2024-04-04T16:47:25.749Z,5.40
2024-04-04T16:49:56.327Z,5.00
2024-04-04T16:52:27.391Z,5.00
2024-04-04T16:54:58.252Z,4.90
2024-04-04T16:57:28.605Z,5.90
2024-04-04T16:59:58.815Z,6.20
2024-04-04T17:02:29.313Z,6.50
2024-04-04T17:05:00.031Z,7.60
2024-04-04T17:11:00.869Z,7.40
2024-04-04T17:13:31.569Z,6.70
2024-04-04T17:16:07.273Z,5.20
2024-04-04T17:18:37.859Z,4.80
2024-04-04T17:21:08.390Z,4.60
2024-04-04T17:23:38.983Z,4.60
2024-04-04T17:26:09.283Z,4.00
2024-04-04T17:28:40.208Z,3.50
2024-04-04T17:31:10.493Z,3.80
2024-04-04T17:33:40.817Z,4.10
2024-04-04T17:36:11.809Z,3.80
2024-04-04T17:38:44.543Z,3.00
2024-04-04T17:41:15.767Z,3.40
2024-04-04T17:43:46.369Z,3.40
2024-04-04T17:46:18.994Z,4.10
2024-04-04T17:48:49.421Z,3.40
2024-04-04T17:51:19.675Z,3.70
2024-04-04T17:53:50.335Z,3.90
2024-04-04T17:56:21.524Z,3.40
2024-04-04T17:58:51.963Z,3.50
2024-04-04T18:01:22.602Z,3.30
2024-04-04T18:03:53.518Z,3.00
2024-04-04T18:08:52.722Z,3.20
2024-04-04T18:11:23.254Z,3.30
2024-04-04T18:13:53.662Z,3.60
2024-04-04T18:16:24.262Z,3.60
2024-04-04T18:18:54.847Z,4.50
2024-04-04T18:21:25.115Z,3.40
2024-04-04T18:23:55.701Z,4.00
2024-04-04T18:26:26.035Z,3.70
2024-04-04T18:29:00.463Z,3.80
2024-04-04T18:31:30.780Z,4.60
2024-04-04T18:34:01.450Z,3.40
2024-04-04T18:36:31.916Z,3.30
2024-04-04T18:39:02.695Z,3.50
2024-04-04T18:41:33.393Z,4.00
2024-04-04T18:44:04.143Z,4.30
2024-04-04T18:49:06.151Z,4.90
2024-04-04T18:51:36.515Z,4.60
2024-04-04T18:54:06.955Z,4.80
2024-04-04T18:56:37.396Z,4.30
2024-04-04T18:59:07.942Z,4.10
2024-04-04T19:01:39.136Z,3.70
2024-04-04T19:04:09.487Z,3.80
2024-04-04T19:07:00.172Z,4.20
2024-04-04T19:09:30.571Z,3.60
2024-04-04T19:12:01.136Z,3.50
2024-04-04T19:14:31.995Z,3.50
2024-04-04T19:17:06.013Z,3.30
2024-04-04T19:19:40.594Z,3.20
2024-04-04T19:22:11.264Z,2.40
2024-04-04T19:24:45.443Z,2.60
2024-04-04T19:27:15.919Z,2.50
2024-04-04T19:29:46.385Z,2.40
2024-04-04T19:32:18.369Z,2.40
2024-04-04T19:35:12.016Z,2.60
2024-04-04T19:40:09.736Z,2.60
2024-04-04T19:42:42.693Z,3.10
2024-04-04T19:45:13.046Z,3.70
2024-04-04T19:47:44.376Z,3.00
2024-04-04T19:50:16.849Z,3.20
2024-04-04T19:52:47.628Z,3.60
2024-04-04T19:55:22.309Z,4.20
2024-04-04T19:57:53.295Z,3.50
2024-04-04T20:00:23.764Z,3.80
2024-04-04T20:02:56.675Z,3.40
2024-04-04T20:05:27.009Z,2.70
2024-04-04T20:07:57.558Z,2.50
2024-04-04T20:10:27.908Z,3.20
2024-04-04T20:12:58.346Z,3.20
2024-04-04T20:15:29.492Z,3.60
2024-04-04T20:17:59.901Z,3.80
2024-04-04T20:20:30.559Z,3.50
2024-04-04T20:23:01.103Z,3.40
2024-04-04T20:25:31.503Z,2.70
2024-04-04T20:28:03.280Z,1.90
2024-04-04T20:30:33.907Z,2.00
2024-04-04T20:33:04.551Z,2.10
2024-04-04T20:35:35.450Z,1.90
2024-04-04T20:40:35.135Z,2.20
2024-04-04T20:43:05.702Z,2.50
2024-04-04T20:45:36.580Z,2.10
2024-04-04T20:50:37.145Z,2.40
2024-04-04T20:53:07.782Z,2.80
2024-04-04T20:55:38.142Z,3.50
2024-04-04T20:58:08.615Z,3.30
2024-04-04T21:00:39.054Z,2.80
2024-04-04T21:03:09.577Z,3.00
2024-04-04T21:05:39.960Z,2.40
2024-04-04T21:08:10.557Z,2.10
2024-04-04T21:10:41.070Z,2.20
2024-04-04T21:13:11.370Z,2.20
2024-04-04T21:15:46.312Z,1.60
2024-04-04T21:18:17.035Z,2.20
2024-04-04T21:20:47.487Z,1.40
2024-04-04T21:23:17.790Z,1.60
2024-04-04T21:25:48.233Z,1.30
2024-04-04T21:28:19.105Z,1.30
2024-04-04T21:30:59.276Z,1.40
2024-04-04T21:33:29.882Z,1.80
2024-04-04T21:36:00.362Z,2.70
2024-04-04T21:38:31.321Z,2.70
2024-04-04T21:46:02.288Z,2.80
2024-04-04T21:48:35.976Z,2.80
2024-04-04T21:51:09.260Z,2.00
2024-04-04T21:53:39.676Z,2.20
2024-04-04T21:56:10.208Z,2.80
2024-04-04T21:59:01.024Z,2.50
2024-04-04T22:03:02.252Z,2.80
2024-04-04T22:05:39.016Z,2.60
2024-04-04T22:08:11.096Z,2.10
2024-04-04T22:11:11.867Z,2.20
2024-04-04T22:13:34.524Z,2.50
2024-04-04T22:16:05.983Z,2.70
2024-04-04T22:18:36.304Z,2.20
2024-04-04T22:21:09.823Z,2.30
2024-04-04T22:23:40.078Z,2.20
2024-04-04T22:26:10.669Z,2.40
2024-04-04T22:28:44.019Z,2.20
2024-04-04T22:31:14.657Z,1.90
2024-04-04T22:33:45.191Z,1.90
2024-04-04T22:36:15.706Z,2.20
2024-04-04T22:38:47.266Z,2.00
2024-04-04T22:41:17.701Z,2.50
2024-04-04T22:43:48.830Z,2.90
2024-04-04T22:46:19.236Z,2.80
2024-04-04T22:48:50.067Z,2.60
2024-04-04T22:51:20.604Z,2.30
2024-04-04T22:53:51.010Z,2.30
2024-04-04T22:56:21.375Z,2.30
2024-04-04T22:58:52.037Z,2.60
2024-04-04T23:01:22.922Z,2.80
2024-04-04T23:06:22.046Z,1.70
2024-04-04T23:08:52.460Z,2.00
2024-04-04T23:11:22.868Z,2.30
2024-04-04T23:13:53.379Z,2.10
2024-04-04T23:16:24.135Z,1.70
2024-04-04T23:18:55.259Z,2.00
2024-04-04T23:21:25.743Z,1.90
2024-04-04T23:23:56.088Z,1.70
2024-04-04T23:26:26.505Z,1.60
2024-04-04T23:28:56.965Z,1.80
2024-04-04T23:31:27.749Z,1.60
2024-04-04T23:33:58.627Z,1.60
2024-04-04T23:36:29.898Z,1.60
2024-04-04T23:39:00.381Z,1.50
2024-04-04T23:41:30.638Z,1.30
2024-04-04T23:44:02.025Z,1.30
2024-04-04T23:46:32.461Z,1.10
2024-04-04T23:49:02.720Z,1.20
2024-04-04T23:51:33.191Z,1.10
2024-04-04T23:54:03.484Z,1.20
2024-04-04T23:56:34.082Z,1.20
2024-04-04T23:59:04.430Z,1.10
